Deane, Kentucky
Current Conditions -  °F | °C
As of 9:35 PM on Thursday 20 Nov 2014 (Local Time) from KLNP Reporting Station
Clear Clear  
Wind Chill: 24°   Ceiling: Unl
Heat Index: 32°   Visibility: 10mi
Dew Point: 14°   Wind: 9mph
Humidity: 47%   Direction: 280°W
Pressure: 30.14"   Gusts: NA
Location:  37.24°N, 82.78°W
Report Text: KLNP 210235Z AUTO 28008KT 10SM CLR 00/M10 A3014 RMK AO2
Loading
Personal Weather Stations






























Interactive Weather Map New forecast layout! Learn more

10-Day Weather Forecast

Advertisements
Track Severe Weather on mobile